Time;durP1;ratioP1;P1;durP2;ratioP2;P2;SDS_P1;SDS_P2;PMS_P1;PMS_P2;Temp;Humidity;BMP_temperature;BMP_pressure;BME280_temperature;BME280_humidity;BME280_pressure;Samples;Min_cycle;Max_cycle;Signal;HPM_P1;HPM_P2
2022/06/30 00:00:38;;;;;;;3.10;0.83;;;;;;;18.36;62.36;100386.97;4995454;28;20304;-61
2022/06/30 00:03:09;;;;;;;6.40;0.90;;;;;;;18.23;61.55;100385.84;4997821;28;20349;-62
2022/06/30 00:05:40;;;;;;;9.43;1.20;;;;;;;18.26;63.11;100380.41;4997653;28;20618;-60
2022/06/30 00:08:10;;;;;;;2.07;0.80;;;;;;;18.35;62.40;100390.56;4997666;28;20301;-60
2022/06/30 00:10:41;;;;;;;3.00;0.83;;;;;;;18.29;63.27;100385.53;4997587;28;20293;-61
2022/06/30 00:13:12;;;;;;;4.43;1.13;;;;;;;18.31;61.66;100381.03;4994798;28;20305;-60
2022/06/30 00:15:44;;;;;;;4.50;1.00;;;;;;;18.31;61.80;100378.41;4997119;28;20440;-60
2022/06/30 00:18:15;;;;;;;2.80;0.80;;;;;;;18.43;61.83;100383.13;4995551;28;20304;-61
2022/06/30 00:20:45;;;;;;;3.47;0.97;;;;;;;18.62;61.61;100379.59;4997598;28;20347;-61
2022/06/30 00:23:16;;;;;;;3.07;0.90;;;;;;;18.81;61.94;100380.47;4995503;28;20290;-61
2022/06/30 00:25:47;;;;;;;3.70;0.87;;;;;;;18.77;60.72;100386.84;4997497;28;20289;-61
2022/06/30 00:28:18;;;;;;;4.47;0.70;;;;;;;18.82;61.67;100383.94;4997033;28;20961;-60
2022/06/30 00:30:52;;;;;;;3.67;0.70;;;;;;;18.51;61.87;100301.56;4997410;28;20285;-60
2022/06/30 00:33:23;;;;;;;2.47;0.90;;;;;;;18.96;59.45;100390.28;4997697;28;20305;-60
2022/06/30 00:35:54;;;;;;;5.07;1.00;;;;;;;19.07;61.56;100380.97;4995305;28;20629;-61
2022/06/30 00:38:25;;;;;;;3.37;0.87;;;;;;;19.29;59.56;100384.25;4997799;28;20294;-61
2022/06/30 00:40:55;;;;;;;1.13;0.63;;;;;;;19.46;60.38;100385.19;4995449;28;20324;-60
2022/06/30 00:43:26;;;;;;;1.20;0.90;;;;;;;19.23;58.43;100389.88;4997835;28;20285;-60
2022/06/30 00:45:58;;;;;;;1.47;0.90;;;;;;;19.23;59.43;100389.00;4996534;28;20316;-60
2022/06/30 00:48:29;;;;;;;4.50;0.93;;;;;;;19.15;59.35;100381.44;4997423;28;20562;-60
2022/06/30 00:50:59;;;;;;;5.10;1.47;;;;;;;19.37;60.17;100387.38;4997483;28;20289;-60
2022/06/30 00:53:32;;;;;;;1.77;1.10;;;;;;;19.38;59.15;100386.44;4997338;28;20301;-61
2022/06/30 00:56:03;;;;;;;3.60;0.90;;;;;;;19.45;58.75;100383.50;4997412;28;20293;-61
2022/06/30 00:58:37;;;;;;;2.70;1.10;;;;;;;19.66;58.88;100382.34;4997300;28;20274;-62
2022/06/30 01:01:11;;;;;;;6.30;0.97;;;;;;;19.68;58.88;100363.75;4995500;28;20297;-61
2022/06/30 01:03:42;;;;;;;2.17;1.40;;;;;;;19.84;58.89;100380.56;4997512;28;20290;-60
2022/06/30 01:06:13;;;;;;;5.67;1.20;;;;;;;19.71;58.19;100343.25;4997400;28;20594;-61
2022/06/30 01:08:43;;;;;;;3.10;1.30;;;;;;;19.97;59.01;100380.78;4994778;28;20285;-61
2022/06/30 01:14:02;;;;;;;3.93;1.40;;;;;;;19.98;57.01;100377.19;5000183;28;20301;-60
2022/06/30 01:16:35;;;;;;;3.73;1.30;;;;;;;19.99;57.65;100369.16;5000246;28;20526;-61
2022/06/30 01:19:05;;;;;;;6.10;1.73;;;;;;;20.23;56.62;100382.88;4998141;28;20297;-61
2022/06/30 01:21:38;;;;;;;9.07;2.13;;;;;;;20.26;56.53;100372.09;5000428;28;20560;-62
2022/06/30 01:24:08;;;;;;;8.97;1.97;;;;;;;20.41;57.98;100358.91;4998402;28;20336;-60
2022/06/30 01:26:39;;;;;;;8.53;1.77;;;;;;;20.45;57.31;100371.09;5000291;28;20296;-61
2022/06/30 01:29:10;;;;;;;7.00;1.40;;;;;;;20.51;57.89;100370.72;5000462;28;20292;-61
2022/06/30 01:31:41;;;;;;;5.93;1.70;;;;;;;20.45;58.19;100371.09;5000289;28;20289;-61
2022/06/30 01:34:11;;;;;;;4.27;1.47;;;;;;;20.34;58.81;100381.41;4988990;28;20306;-62
2022/06/30 01:36:44;;;;;;;9.80;1.60;;;;;;;20.50;58.63;100363.72;4987068;28;20294;-61
2022/06/30 01:39:14;;;;;;;7.83;1.70;;;;;;;20.48;58.36;100365.59;4987408;28;20301;-61
2022/06/30 01:41:45;;;;;;;5.10;1.90;;;;;;;20.73;59.42;100365.09;4986805;28;20290;-61
2022/06/30 01:44:15;;;;;;;7.53;1.63;;;;;;;20.83;58.08;100360.97;4987476;28;20274;-61
2022/06/30 01:46:48;;;;;;;14.10;2.13;;;;;;;21.16;58.92;100367.91;4987115;28;20362;-61
2022/06/30 01:49:19;;;;;;;4.50;1.80;;;;;;;21.40;58.60;100370.13;4988294;28;20337;-60
2022/06/30 01:51:51;;;;;;;6.47;1.70;;;;;;;21.41;56.89;100366.50;4987311;28;20294;-61
2022/06/30 01:54:22;;;;;;;4.67;1.50;;;;;;;21.22;56.77;100350.78;4987009;28;20298;-61
2022/06/30 01:56:53;;;;;;;5.67;1.90;;;;;;;21.21;56.03;100352.56;4987038;28;20308;-61
2022/06/30 01:59:24;;;;;;;6.17;1.80;;;;;;;21.17;56.90;100347.50;4987684;28;20297;-60
2022/06/30 02:01:54;;;;;;;6.73;1.90;;;;;;;21.28;56.93;100361.03;4987539;28;20787;-62
2022/06/30 02:07:14;;;;;;;4.50;1.90;;;;;;;21.18;56.97;100354.56;4987324;28;20294;-61
2022/06/30 02:09:44;;;;;;;8.77;2.30;;;;;;;21.59;58.87;100364.53;4987072;28;20282;-61
2022/06/30 02:15:02;;;;;;;8.93;2.37;;;;;;;22.16;55.06;100364.53;4987364;28;20357;-61
2022/06/30 02:17:33;;;;;;;3.23;1.77;;;;;;;22.01;55.53;100349.53;4986870;28;20304;-61
2022/06/30 02:20:03;;;;;;;6.23;1.93;;;;;;;22.06;56.75;100358.09;4986856;28;20301;-61
2022/06/30 02:22:36;;;;;;;2.10;1.67;;;;;;;22.42;56.07;100351.44;4986496;28;20300;-63
2022/06/30 02:25:08;;;;;;;6.20;1.87;;;;;;;22.07;54.25;100286.16;4986796;28;20415;-61
2022/06/30 02:27:38;;;;;;;1.80;1.40;;;;;;;22.38;55.03;100361.41;4986749;28;20296;-60
2022/06/30 02:30:10;;;;;;;5.53;1.77;;;;;;;22.25;54.98;100352.50;4986356;28;20322;-61
2022/06/30 02:32:40;;;;;;;2.27;1.50;;;;;;;22.12;55.08;100353.25;4986518;28;20062;-60
2022/06/30 02:35:12;;;;;;;5.13;2.03;;;;;;;22.22;55.59;100361.53;4986338;28;20054;-62
2022/06/30 02:37:44;;;;;;;3.63;1.73;;;;;;;22.24;54.86;100359.66;4986666;28;20337;-61
2022/06/30 02:40:15;;;;;;;4.43;1.93;;;;;;;22.21;55.68;100345.66;4986823;28;20070;-61
2022/06/30 02:42:45;;;;;;;3.43;1.77;;;;;;;22.87;56.16;100354.72;4986406;28;20462;-62
2022/06/30 02:45:16;;;;;;;3.47;1.90;;;;;;;22.96;53.30;100362.06;4986490;28;20314;-63
2022/06/30 02:47:46;;;;;;;3.53;1.33;;;;;;;22.75;55.61;100353.69;4986340;28;20207;-62
2022/06/30 02:50:17;;;;;;;6.50;1.63;;;;;;;22.46;55.35;100356.44;4986217;28;20054;-60
2022/06/30 02:52:49;;;;;;;3.40;1.60;;;;;;;22.30;55.98;100361.91;4986458;28;20325;-60
2022/06/30 02:55:21;;;;;;;8.20;1.67;;;;;;;22.23;56.09;100355.25;4986092;28;20057;-61
2022/06/30 02:57:51;;;;;;;10.03;1.90;;;;;;;22.14;56.86;100355.78;4986441;28;20343;-61
2022/06/30 03:00:23;;;;;;;8.43;2.00;;;;;;;22.32;57.67;100354.69;4986295;28;20067;-62
2022/06/30 03:02:53;;;;;;;7.60;1.70;;;;;;;22.35;56.68;100343.81;4986754;28;20097;-61
2022/06/30 03:05:24;;;;;;;9.00;2.13;;;;;;;22.42;56.87;100349.63;4986204;28;20054;-61
2022/06/30 03:07:56;;;;;;;4.63;1.90;;;;;;;22.11;55.48;100356.00;4986984;28;20097;-61
2022/06/30 03:10:27;;;;;;;9.50;1.50;;;;;;;21.79;57.71;100358.88;4987042;28;20059;-60
2022/06/30 03:12:57;;;;;;;3.73;1.67;;;;;;;21.62;58.39;100359.06;4986499;28;20065;-61
2022/06/30 03:15:28;;;;;;;18.67;2.90;;;;;;;21.35;58.70;100357.06;4986501;28;20325;-61
2022/06/30 03:17:59;;;;;;;6.10;1.70;;;;;;;21.08;59.67;100355.09;4987117;28;20069;-61
2022/06/30 03:20:30;;;;;;;2.20;1.40;;;;;;;20.78;59.15;100351.56;4986892;28;20379;-61
2022/06/30 03:23:02;;;;;;;1.47;1.37;;;;;;;20.78;61.53;100362.19;4986063;28;20053;-61
2022/06/30 03:25:33;;;;;;;3.53;1.30;;;;;;;20.60;60.30;100364.94;4986157;28;20062;-61
2022/06/30 03:28:04;;;;;;;3.63;1.33;;;;;;;20.50;60.63;100377.00;4986069;28;20281;-61
2022/06/30 03:30:45;;;;;;;8.87;1.67;;;;;;;20.48;61.46;100368.25;4986127;28;20638;-62
2022/06/30 03:33:15;;;;;;;4.97;1.30;;;;;;;20.44;59.82;100374.66;4985950;28;20285;-61
2022/06/30 03:35:46;;;;;;;5.43;1.20;;;;;;;20.23;60.43;100385.53;4985202;28;20305;-60
2022/06/30 03:38:19;;;;;;;9.13;1.60;;;;;;;20.19;61.63;100380.47;4985857;28;20281;-62
2022/06/30 03:40:49;;;;;;;11.00;1.37;;;;;;;20.26;60.99;100388.00;4985816;28;20286;-61
2022/06/30 03:43:21;;;;;;;6.93;1.20;;;;;;;20.12;60.38;100387.91;4986140;28;20308;-63
2022/06/30 03:45:51;;;;;;;5.57;1.60;;;;;;;20.05;59.84;100394.50;4987056;28;20302;-60
2022/06/30 03:48:22;;;;;;;16.33;2.33;;;;;;;19.91;59.88;100397.88;4986030;28;20290;-61
2022/06/30 03:50:53;;;;;;;6.73;1.63;;;;;;;19.58;60.00;100403.13;4986208;28;20316;-62
2022/06/30 03:53:25;;;;;;;10.23;1.43;;;;;;;19.36;60.97;100412.16;4985838;28;20372;-61
2022/06/30 03:55:56;;;;;;;13.27;1.40;;;;;;;19.11;60.64;100406.38;4986426;28;20305;-61
2022/06/30 03:58:26;;;;;;;2.40;1.10;;;;;;;18.81;60.94;100398.97;4986393;28;20297;-62
2022/06/30 04:00:57;;;;;;;11.37;1.60;;;;;;;18.71;61.99;100403.81;4985904;28;20443;-61
2022/06/30 04:03:28;;;;;;;6.03;1.43;;;;;;;18.48;61.97;100407.56;4986327;28;20289;-61
2022/06/30 04:05:59;;;;;;;2.67;1.27;;;;;;;18.16;62.65;100410.84;4987220;28;20290;-60
2022/06/30 04:08:31;;;;;;;16.30;1.17;;;;;;;18.14;63.69;100415.34;4987349;28;20302;-60
2022/06/30 04:11:02;;;;;;;3.33;0.83;;;;;;;17.96;63.90;100417.88;4985863;28;20290;-61
2022/06/30 04:13:32;;;;;;;7.07;1.23;;;;;;;17.86;64.68;100419.22;4985757;28;20304;-61
2022/06/30 04:16:03;;;;;;;14.73;1.20;;;;;;;17.73;64.06;100429.44;4985342;28;20344;-61
2022/06/30 04:18:40;;;;;;;3.90;0.93;;;;;;;17.59;64.79;100429.16;4985463;28;21000;-61
2022/06/30 04:21:13;;;;;;;1.57;0.90;;;;;;;17.37;66.02;100426.56;4985200;28;20293;-61
2022/06/30 04:23:45;;;;;;;7.37;0.80;;;;;;;17.25;66.76;100431.47;4985447;28;20295;-61
2022/06/30 04:26:16;;;;;;;8.77;1.00;;;;;;;17.16;66.11;100429.19;4985575;28;20318;-61
2022/06/30 04:28:46;;;;;;;3.80;1.20;;;;;;;17.07;65.98;100434.81;4985633;28;20298;-61
2022/06/30 04:34:04;;;;;;;5.77;1.00;;;;;;;16.85;66.68;100439.25;4950563;28;20294;-61
2022/06/30 04:36:34;;;;;;;1.43;0.80;;;;;;;16.86;66.90;100446.25;4985299;28;20519;-61
2022/06/30 04:39:07;;;;;;;10.30;1.00;;;;;;;16.82;67.37;100456.06;4985733;28;21056;-62
2022/06/30 04:41:36;;;;;;;11.20;1.47;;;;;;;16.78;67.79;100455.34;4985396;28;20321;-61
2022/06/30 04:44:07;;;;;;;8.20;0.77;;;;;;;16.55;67.57;100421.06;4985123;28;20345;-62
2022/06/30 04:46:38;;;;;;;6.57;0.97;;;;;;;16.75;66.23;100466.00;4986851;28;20356;-61
2022/06/30 04:49:09;;;;;;;10.47;1.17;;;;;;;16.84;66.67;100469.22;4989957;28;20681;-62
2022/06/30 04:51:41;;;;;;;3.30;0.77;;;;;;;16.90;66.60;100469.84;4989329;28;20289;-61
2022/06/30 04:54:13;;;;;;;4.30;0.73;;;;;;;16.96;66.69;100468.72;4988987;28;20288;-61
2022/06/30 04:56:44;;;;;;;8.00;0.80;;;;;;;16.96;65.35;100463.44;4988677;28;20466;-62
2022/06/30 04:59:15;;;;;;;7.30;1.10;;;;;;;16.91;65.87;100454.84;4990634;28;20636;-61
2022/06/30 05:01:45;;;;;;;9.70;1.20;;;;;;;16.93;66.18;100463.59;4990549;28;20590;-61
2022/06/30 05:04:16;;;;;;;7.53;1.00;;;;;;;16.99;65.44;100455.41;4989823;28;20654;-62
2022/06/30 05:06:47;;;;;;;1.50;0.73;;;;;;;16.74;65.22;100443.13;4988332;28;20266;-62
2022/06/30 05:09:19;;;;;;;4.23;0.80;;;;;;;16.92;65.31;100461.84;4988433;28;20285;-61
2022/06/30 05:11:50;;;;;;;11.63;1.53;;;;;;;16.94;64.82;100449.44;4989691;28;20574;-61
2022/06/30 05:14:21;;;;;;;13.53;1.77;;;;;;;16.94;64.72;100450.31;4988751;28;20297;-61
2022/06/30 05:16:52;;;;;;;6.83;0.90;;;;;;;16.97;64.24;100454.59;4989555;28;20339;-61
2022/06/30 05:19:23;;;;;;;19.43;1.47;;;;;;;17.06;63.69;100451.59;4988830;28;20294;-61
2022/06/30 05:21:53;;;;;;;7.20;1.00;;;;;;;17.12;63.31;100443.41;4988611;28;20462;-61
2022/06/30 05:27:13;;;;;;;1.00;0.90;;;;;;;17.06;64.00;100454.25;4988256;28;20276;-61
2022/06/30 05:29:43;;;;;;;3.90;1.00;;;;;;;17.06;64.09;100458.66;4988390;28;20043;-61
2022/06/30 05:32:14;;;;;;;4.37;1.07;;;;;;;16.59;63.65;100386.56;4988347;28;20372;-61
2022/06/30 05:34:45;;;;;;;1.17;0.60;;;;;;;17.02;63.31;100457.91;4987779;28;20297;-61
2022/06/30 05:37:15;;;;;;;1.87;0.77;;;;;;;17.04;63.70;100450.81;4988261;28;20641;-63
2022/06/30 05:39:48;;;;;;;3.70;1.10;;;;;;;17.12;63.57;100448.69;4989072;28;20298;-61
2022/06/30 05:42:18;;;;;;;11.50;1.10;;;;;;;17.13;64.06;100461.00;4988274;28;20285;-61
2022/06/30 05:44:49;;;;;;;2.00;0.80;;;;;;;17.20;63.09;100449.28;4987997;28;20282;-61
2022/06/30 05:47:19;;;;;;;0.87;0.70;;;;;;;17.17;63.75;100457.31;4988065;28;20322;-61
2022/06/30 05:49:50;;;;;;;6.80;0.90;;;;;;;17.20;64.38;100446.63;4987849;28;20302;-61
2022/06/30 05:52:21;;;;;;;3.43;0.90;;;;;;;17.26;64.29;100453.44;4987923;28;20296;-61
2022/06/30 05:54:53;;;;;;;5.10;0.90;;;;;;;17.19;63.69;100455.47;4987728;28;20286;-62
2022/06/30 05:57:24;;;;;;;2.13;0.70;;;;;;;17.11;64.30;100457.56;4987295;28;20615;-61
2022/06/30 05:59:54;;;;;;;5.17;1.10;;;;;;;17.10;64.82;100455.84;4987906;28;20502;-61
2022/06/30 06:02:25;;;;;;;2.73;1.00;;;;;;;17.03;64.88;100464.94;4987440;28;20289;-61
2022/06/30 06:04:55;;;;;;;9.57;1.30;;;;;;;16.92;65.86;100467.13;4987566;28;20351;-61
2022/06/30 06:07:26;;;;;;;0.93;0.70;;;;;;;16.84;65.04;100469.22;4987693;28;20302;-61
2022/06/30 06:09:58;;;;;;;4.23;0.80;;;;;;;16.81;65.49;100476.31;4987438;28;20277;-61
2022/06/30 06:12:39;;;;;;;2.17;0.73;;;;;;;16.74;65.47;100480.06;4988634;28;20327;-61
2022/06/30 06:15:10;;;;;;;0.90;0.70;;;;;;;16.58;65.59;100481.59;4987368;28;20297;-61
2022/06/30 06:17:45;;;;;;;2.67;1.00;;;;;;;16.42;65.96;100480.44;4987049;28;20526;-63
2022/06/30 06:20:18;;;;;;;2.33;0.73;;;;;;;16.26;66.06;100482.78;4987369;28;20354;-61
2022/06/30 06:22:49;;;;;;;2.33;1.00;;;;;;;16.22;67.18;100486.44;4987248;28;20290;-61
2022/06/30 06:25:21;;;;;;;0.60;0.60;;;;;;;16.19;66.52;100492.69;4987078;28;20320;-61
2022/06/30 06:30:36;;;;;;;3.50;0.93;;;;;;;16.06;66.76;100496.69;4987019;28;20274;-61
2022/06/30 06:33:06;;;;;;;1.07;0.83;;;;;;;16.06;67.29;100496.69;4986933;28;20283;-61
2022/06/30 06:35:37;;;;;;;4.53;0.80;;;;;;;16.08;66.82;100500.13;4986874;28;20470;-61
2022/06/30 06:38:08;;;;;;;2.83;0.97;;;;;;;16.13;67.51;100499.03;4986906;28;20327;-61
2022/06/30 06:40:41;;;;;;;15.37;1.20;;;;;;;16.24;67.22;100506.56;4986740;28;20315;-61
2022/06/30 06:43:12;;;;;;;9.77;0.90;;;;;;;16.15;66.23;100499.84;4986758;28;20298;-62
2022/06/30 06:45:42;;;;;;;3.27;1.00;;;;;;;16.13;66.91;100514.00;4986795;28;20285;-61
2022/06/30 06:48:13;;;;;;;2.17;0.83;;;;;;;16.11;67.29;100510.56;4986967;28;20289;-61
2022/06/30 06:50:44;;;;;;;3.00;0.70;;;;;;;16.12;67.69;100502.56;4986920;28;20274;-61
2022/06/30 06:53:15;;;;;;;2.00;0.70;;;;;;;16.19;67.77;100513.78;4986551;28;20354;-61
2022/06/30 06:55:47;;;;;;;1.50;0.60;;;;;;;16.25;67.16;100513.56;4986652;28;20301;-61
2022/06/30 06:58:18;;;;;;;3.60;1.00;;;;;;;16.23;67.18;100510.13;4986280;28;20673;-61
2022/06/30 07:00:48;;;;;;;8.63;0.67;;;;;;;16.31;67.66;100510.69;4986556;28;20298;-61
2022/06/30 07:03:19;;;;;;;5.23;0.70;;;;;;;16.37;67.00;100521.03;4986575;28;20365;-61
2022/06/30 07:05:49;;;;;;;1.63;0.90;;;;;;;16.24;66.10;100506.56;4986043;28;20377;-61
2022/06/30 07:08:20;;;;;;;2.50;0.70;;;;;;;16.34;66.54;100513.22;4986032;28;20289;-61
2022/06/30 07:10:55;;;;;;;7.60;0.80;;;;;;;16.29;65.89;100507.25;4985875;28;20334;-61
2022/06/30 07:13:26;;;;;;;1.67;0.60;;;;;;;16.26;66.23;100498.59;4987021;28;20369;-61
2022/06/30 07:15:57;;;;;;;3.13;0.70;;;;;;;16.07;66.68;100466.75;4986856;28;20286;-61
2022/06/30 07:18:27;;;;;;;0.80;0.70;;;;;;;16.32;66.56;100493.09;4986354;28;20316;-60
2022/06/30 07:20:58;;;;;;;2.40;0.80;;;;;;;16.32;66.46;100491.31;4986209;28;20580;-61
2022/06/30 07:23:29;;;;;;;5.13;0.90;;;;;;;16.43;66.51;100495.38;4986159;28;20270;-61
2022/06/30 07:26:02;;;;;;;12.57;1.40;;;;;;;16.49;66.47;100495.97;4986444;28;20290;-61
2022/06/30 07:28:32;;;;;;;4.53;0.80;;;;;;;16.43;66.17;100495.38;4986892;28;20298;-61
2022/06/30 07:31:24;;;;;;;1.33;0.80;;;;;;;16.27;66.27;100501.16;4986092;28;20286;-60
2022/06/30 07:33:54;;;;;;;0.80;0.70;;;;;;;16.35;66.78;100491.22;4985710;28;20278;-61
2022/06/30 07:36:25;;;;;;;1.80;0.80;;;;;;;16.44;66.60;100491.81;4985811;28;20289;-60
2022/06/30 07:38:56;;;;;;;4.50;1.00;;;;;;;16.57;66.27;100487.78;4985784;28;20380;-61
2022/06/30 07:41:28;;;;;;;4.70;0.80;;;;;;;16.60;65.95;100492.97;4985720;28;20302;-60
2022/06/30 07:43:59;;;;;;;4.17;0.70;;;;;;;16.63;65.94;100494.63;4985905;28;20290;-61
2022/06/30 07:46:29;;;;;;;2.23;1.10;;;;;;;16.64;66.33;100494.53;4985835;28;20352;-61
2022/06/30 07:49:03;;;;;;;4.23;1.00;;;;;;;16.61;65.95;100494.66;4986056;28;20349;-61
2022/06/30 07:51:35;;;;;;;10.93;1.20;;;;;;;16.48;65.61;100503.97;4985924;28;20352;-62
2022/06/30 07:54:05;;;;;;;3.57;1.07;;;;;;;16.32;66.22;100499.22;4986104;28;20314;-60
2022/06/30 07:56:38;;;;;;;2.77;1.00;;;;;;;16.33;66.87;100505.38;4986286;28;20893;-61
2022/06/30 07:59:08;;;;;;;5.63;1.17;;;;;;;16.32;66.76;100506.28;4985479;28;20310;-63
2022/06/30 08:01:39;;;;;;;7.50;1.50;;;;;;;16.29;67.04;100504.63;4985644;28;20301;-63
2022/06/30 08:04:11;;;;;;;2.33;1.10;;;;;;;16.28;66.93;100513.47;4985822;28;20274;-63
2022/06/30 08:06:42;;;;;;;2.93;0.70;;;;;;;16.20;66.92;100510.25;4985578;28;20285;-64
2022/06/30 08:09:13;;;;;;;2.83;1.07;;;;;;;16.07;67.64;100498.41;4985549;28;20345;-63
2022/06/30 08:11:45;;;;;;;6.20;1.63;;;;;;;16.22;68.38;100515.44;4985499;28;20282;-65
2022/06/30 08:14:16;;;;;;;9.20;0.77;;;;;;;16.28;67.68;100512.59;4985596;28;20554;-63
2022/06/30 08:16:47;;;;;;;4.83;0.90;;;;;;;16.28;67.74;100517.88;4986006;28;20356;-63
2022/06/30 08:19:19;;;;;;;4.87;0.90;;;;;;;16.27;67.64;100517.00;4986381;28;20314;-62
2022/06/30 08:21:50;;;;;;;3.10;0.80;;;;;;;16.12;68.28;100475.38;4989298;28;20294;-63
2022/06/30 08:24:20;;;;;;;9.87;1.50;;;;;;;16.37;68.01;100506.97;4989315;28;20288;-63
2022/06/30 08:26:53;;;;;;;4.00;1.10;;;;;;;16.39;68.21;100521.81;4989423;28;20386;-64
2022/06/30 08:29:24;;;;;;;9.23;1.23;;;;;;;16.18;67.75;100490.97;4989734;28;20293;-64
2022/06/30 08:31:55;;;;;;;6.33;1.20;;;;;;;16.37;67.61;100517.53;4989774;28;20455;-62
2022/06/30 08:34:25;;;;;;;8.70;1.40;;;;;;;16.40;67.49;100522.72;4989576;28;20324;-64
2022/06/30 08:36:56;;;;;;;22.90;1.73;;;;;;;16.46;67.54;100526.91;4989580;28;20282;-64
2022/06/30 08:42:16;;;;;;;13.83;1.63;;;;;;;16.46;68.30;100537.44;4989003;28;20304;-62
2022/06/30 08:45:13;;;;;;;11.20;1.43;;;;;;;15.83;68.71;100421.94;4989119;28;20293;-63
2022/06/30 08:47:40;;;;;;;8.40;1.53;;;;;;;16.54;68.26;100532.75;4990047;28;20321;-63
2022/06/30 08:50:13;;;;;;;16.53;1.80;;;;;;;16.50;68.17;100523.22;4988729;28;20293;-64
2022/06/30 08:52:48;;;;;;;7.97;1.70;;;;;;;16.63;68.34;100537.69;4988902;28;20282;-62
2022/06/30 08:55:18;;;;;;;21.23;3.57;;;;;;;16.59;68.04;100522.88;4988972;28;20580;-63
2022/06/30 08:57:53;;;;;;;16.17;2.00;;;;;;;16.72;68.68;100539.97;4990585;28;20865;-63
2022/06/30 09:00:23;;;;;;;18.43;2.40;;;;;;;16.70;68.89;100535.66;4989969;28;20321;-64
2022/06/30 09:02:54;;;;;;;9.33;2.00;;;;;;;16.67;68.90;100536.63;4991415;28;20352;-64
2022/06/30 09:05:25;;;;;;;11.50;2.20;;;;;;;16.71;68.99;100548.81;4991334;28;20297;-63
2022/06/30 09:07:56;;;;;;;14.73;1.90;;;;;;;16.72;69.27;100545.25;4989360;28;20711;-63
2022/06/30 09:10:50;;;;;;;17.37;1.93;;;;;;;16.68;69.28;100537.53;4988842;28;20281;-64
2022/06/30 09:13:23;;;;;;;8.93;1.67;;;;;;;16.62;69.33;100538.59;4989211;28;20360;-64
2022/06/30 09:15:54;;;;;;;10.30;2.23;;;;;;;16.57;69.71;100540.53;4988601;28;20336;-64
2022/06/30 09:18:26;;;;;;;9.50;1.50;;;;;;;16.60;69.72;100551.00;4988269;28;20632;-65
2022/06/30 09:20:58;;;;;;;12.27;2.37;;;;;;;16.63;70.30;100556.16;4988155;28;20352;-62
2022/06/30 09:23:30;;;;;;;11.33;1.90;;;;;;;16.57;70.84;100541.41;4988211;28;20289;-62
2022/06/30 09:26:03;;;;;;;12.77;2.03;;;;;;;16.60;71.39;100540.44;4988503;28;20297;-63
2022/06/30 09:28:46;;;;;;;6.10;2.17;;;;;;;16.57;71.59;100554.59;4988326;28;20352;-65
2022/06/30 09:31:38;;;;;;;11.13;2.17;;;;;;;16.58;72.29;100552.81;4989173;28;20294;-66
2022/06/30 09:34:19;;;;;;;7.80;2.43;;;;;;;16.59;72.72;100559.81;4988862;28;20368;-63
2022/06/30 09:36:51;;;;;;;8.37;3.23;;;;;;;16.58;73.30;100568.66;4988922;28;20364;-64
2022/06/30 09:39:23;;;;;;;16.33;3.00;;;;;;;16.57;73.74;100577.47;4989949;28;20313;-64
2022/06/30 09:41:54;;;;;;;13.57;2.93;;;;;;;16.51;74.52;100577.69;4988399;28;20317;-63
2022/06/30 09:44:34;;;;;;;16.97;3.53;;;;;;;16.45;74.87;100575.28;4989528;28;20353;-64
2022/06/30 09:47:06;;;;;;;11.50;3.83;;;;;;;16.39;75.23;100574.56;4988609;28;20305;-61
2022/06/30 09:49:39;;;;;;;14.37;6.10;;;;;;;16.32;75.64;100583.59;4987863;28;20281;-66
2022/06/30 09:52:18;;;;;;;15.03;4.40;;;;;;;16.27;75.88;100590.81;4988009;28;21302;-64
2022/06/30 09:54:57;;;;;;;13.80;6.20;;;;;;;16.18;75.87;100585.88;4987648;28;20524;-64
2022/06/30 09:57:40;;;;;;;17.60;8.80;;;;;;;16.03;76.42;100578.50;4987812;28;20062;-63
2022/06/30 10:00:14;;;;;;;10.47;4.17;;;;;;;15.99;76.81;100590.06;4987600;28;20490;-62
2022/06/30 10:02:47;;;;;;;18.67;9.73;;;;;;;15.92;77.35;100595.50;4987729;28;20361;-64
2022/06/30 10:05:19;;;;;;;14.03;4.60;;;;;;;15.79;77.35;100583.66;4987542;28;20294;-63
2022/06/30 10:07:50;;;;;;;12.77;4.70;;;;;;;15.86;77.70;100589.59;4987456;28;20274;-62
2022/06/30 10:10:21;;;;;;;14.77;4.97;;;;;;;15.87;77.80;100601.84;4987421;28;20301;-63
2022/06/30 10:12:53;;;;;;;11.97;5.20;;;;;;;15.84;77.57;100597.56;4987550;28;20293;-63
2022/06/30 10:15:27;;;;;;;9.77;4.23;;;;;;;15.64;77.91;100584.13;4987251;28;20285;-62
2022/06/30 10:17:59;;;;;;;14.03;5.27;;;;;;;15.45;78.35;100558.41;4987387;28;20499;-64
2022/06/30 10:20:33;;;;;;;16.07;4.20;;;;;;;15.69;78.17;100593.63;4987232;28;20348;-65
2022/06/30 10:23:04;;;;;;;14.50;4.30;;;;;;;15.67;78.30;100599.84;4987730;28;20302;-60
2022/06/30 10:25:36;;;;;;;13.30;3.93;;;;;;;15.62;78.74;100599.13;4987442;28;20474;-64
2022/06/30 10:28:07;;;;;;;7.73;3.13;;;;;;;15.47;78.50;100582.88;4987820;28;20290;-63
2022/06/30 10:30:48;;;;;;;9.27;3.97;;;;;;;15.13;78.55;100537.50;4987391;28;20285;-63
2022/06/30 10:33:26;;;;;;;12.07;3.67;;;;;;;15.53;78.59;100609.03;4986897;28;20575;-62
2022/06/30 10:36:05;;;;;;;14.48;4.30;;;;;;;15.50;78.80;100624.94;4987118;28;20680;-66
2022/06/30 10:38:43;;;;;;;9.00;5.10;;;;;;;15.47;78.50;100619.75;4987195;28;20211;-60
2022/06/30 10:41:16;;;;;;;13.73;4.80;;;;;;;14.90;78.70;100546.91;4986951;28;20301;-60
2022/06/30 10:44:21;;;;;;;12.27;5.33;;;;;;;15.29;79.32;100630.84;4986774;28;20060;-59
2022/06/30 10:47:13;;;;;;;13.27;5.17;;;;;;;15.24;79.38;100638.03;4986870;28;20621;-59
2022/06/30 10:49:58;;;;;;;10.37;5.63;;;;;;;15.17;79.65;100652.28;4987137;28;20353;-59
2022/06/30 10:52:37;;;;;;;11.77;7.13;;;;;;;15.13;80.00;100650.66;4987134;28;20289;-59
2022/06/30 10:55:09;;;;;;;11.67;7.97;;;;;;;15.12;79.98;100646.28;4987024;28;20573;-60
2022/06/30 10:58:02;;;;;;;13.80;8.37;;;;;;;15.06;79.95;100648.19;4986834;28;20850;-58
2022/06/30 11:01:06;;;;;;;18.47;8.97;;;;;;;15.03;80.25;100656.19;4987596;28;20676;-59
2022/06/30 11:07:01;;;;;;;9.63;4.13;;;;;;;14.84;80.66;100641.81;5133164;27;20132;-59
2022/06/30 11:10:07;;;;;;;10.30;5.30;;;;;;;14.87;80.59;100665.41;5112345;28;20306;-61
2022/06/30 11:12:59;;;;;;;11.13;5.83;;;;;;;14.83;80.68;100658.50;5111508;28;20816;-60
2022/06/30 11:15:55;;;;;;;9.73;5.90;;;;;;;14.82;80.73;100664.66;5112290;28;20300;-59
2022/06/30 11:18:27;;;;;;;10.93;5.53;;;;;;;14.75;80.96;100657.84;5112086;28;20690;-58
2022/06/30 11:20:58;;;;;;;14.67;7.17;;;;;;;14.32;81.12;100593.22;5112160;28;20316;-59
2022/06/30 11:23:37;;;;;;;13.97;7.20;;;;;;;14.72;81.23;100660.56;5110983;28;20312;-59
2022/06/30 11:28:57;;;;;;;12.40;6.30;;;;;;;14.65;81.13;100660.75;5111301;28;20052;-60
2022/06/30 11:31:33;;;;;;;11.07;4.57;;;;;;;14.62;81.18;100666.06;5111227;28;20119;-60
2022/06/30 11:34:06;;;;;;;9.47;4.60;;;;;;;14.54;81.32;100657.53;5111181;28;20301;-60
2022/06/30 11:36:38;;;;;;;15.43;6.03;;;;;;;14.59;81.14;100663.53;5111496;28;20277;-58
2022/06/30 11:39:14;;;;;;;11.63;5.10;;;;;;;14.56;81.09;100666.22;5110984;28;20361;-59
2022/06/30 11:41:57;;;;;;;8.43;5.50;;;;;;;14.49;81.12;100664.63;5110144;28;20392;-60
2022/06/30 11:44:31;;;;;;;10.37;6.20;;;;;;;14.40;81.25;100664.84;5110078;28;20296;-61
2022/06/30 11:47:03;;;;;;;19.50;3.87;;;;;;;14.45;81.48;100684.00;5111730;28;20442;-61
2022/06/30 11:49:41;;;;;;;10.43;4.50;;;;;;;14.35;81.53;100666.75;5109328;28;20294;-62
2022/06/30 11:52:15;;;;;;;11.50;4.03;;;;;;;14.46;81.40;100677.88;5109868;28;20361;-62
2022/06/30 11:54:50;;;;;;;8.60;4.10;;;;;;;14.45;81.32;100673.50;5111083;28;20442;-60
2022/06/30 11:57:22;;;;;;;11.60;3.57;;;;;;;14.19;81.04;100630.34;5111548;28;20880;-60
2022/06/30 11:59:57;;;;;;;6.63;3.67;;;;;;;14.45;81.14;100673.50;5109626;28;20282;-62
2022/06/30 12:02:28;;;;;;;6.70;3.57;;;;;;;14.49;80.88;100684.81;5109337;28;20332;-60
2022/06/30 12:05:00;;;;;;;7.70;4.00;;;;;;;14.43;80.60;100676.19;5111049;28;20309;-62
2022/06/30 12:07:32;;;;;;;6.50;3.70;;;;;;;14.38;80.76;100674.59;5111049;28;20297;-61
2022/06/30 12:10:06;;;;;;;13.43;4.53;;;;;;;14.46;80.74;100681.34;5111522;28;20341;-62
2022/06/30 12:12:38;;;;;;;9.53;4.00;;;;;;;14.47;80.69;100671.69;5111484;28;20292;-62